createdAt,value
2022-11-15T00:01:19.869Z,42.38
2022-11-15T00:03:26.589Z,45.45
2022-11-15T00:05:28.250Z,42.95
2022-11-15T00:07:53.914Z,41.97
2022-11-15T00:09:51.506Z,39.95
2022-11-15T00:11:53.562Z,42.75
2022-11-15T00:13:58.980Z,42.13
2022-11-15T00:16:02.219Z,42.65
2022-11-15T00:18:04.832Z,42.08
2022-11-15T00:20:06.984Z,41.55
2022-11-15T00:22:08.614Z,39.75
2022-11-15T00:24:10.464Z,41.70
2022-11-15T00:26:16.107Z,45.33
2022-11-15T00:28:17.692Z,42.17
2022-11-15T00:30:19.469Z,39.95
2022-11-15T00:32:21.052Z,42.75
2022-11-15T00:34:22.677Z,45.55
2022-11-15T00:36:24.370Z,44.50
2022-11-15T00:38:26.023Z,44.03
2022-11-15T00:40:27.676Z,45.83
2022-11-15T00:42:32.500Z,44.90
2022-11-15T00:44:34.058Z,41.00
2022-11-15T00:46:35.663Z,43.58
2022-11-15T00:48:37.786Z,40.45
2022-11-15T00:50:39.495Z,43.60
2022-11-15T00:52:41.179Z,40.30
2022-11-15T00:54:42.790Z,41.03
2022-11-15T00:56:44.498Z,41.25
2022-11-15T00:58:46.109Z,43.97
2022-11-15T01:00:47.813Z,41.47
2022-11-15T01:02:49.670Z,38.75
2022-11-15T01:04:51.293Z,37.13
2022-11-15T01:06:52.944Z,36.53
2022-11-15T01:08:54.539Z,35.85
2022-11-15T01:11:04.849Z,38.47
2022-11-15T01:13:06.605Z,37.75
2022-11-15T01:15:08.750Z,39.80
2022-11-15T01:17:10.484Z,38.05
2022-11-15T01:19:12.481Z,39.03
2022-11-15T01:21:17.536Z,39.03
2022-11-15T01:23:19.170Z,36.05
2022-11-15T01:25:21.007Z,37.65
2022-11-15T01:27:22.718Z,36.97
2022-11-15T01:29:24.383Z,35.38
2022-11-15T01:31:26.263Z,36.15
2022-11-15T01:33:29.440Z,36.28
2022-11-15T01:35:31.307Z,36.53
2022-11-15T01:37:33.077Z,34.88
2022-11-15T01:39:34.793Z,36.08
2022-11-15T01:41:36.419Z,35.83
2022-11-15T01:43:38.128Z,35.97
2022-11-15T01:45:39.928Z,35.05
2022-11-15T01:47:51.952Z,34.33
2022-11-15T01:50:40.762Z,33.42
2022-11-15T01:52:52.357Z,32.30
2022-11-15T01:55:31.643Z,32.85
2022-11-15T01:57:48.674Z,33.88
2022-11-15T01:59:50.530Z,32.63
2022-11-15T02:01:52.260Z,34.72
2022-11-15T02:03:59.359Z,35.67
2022-11-15T02:06:01.015Z,34.22
2022-11-15T02:08:03.019Z,34.60
2022-11-15T02:10:08.665Z,33.28
2022-11-15T02:12:11.061Z,32.28
2022-11-15T02:14:15.004Z,34.05
2022-11-15T02:18:39.625Z,37.22
2022-11-15T02:20:46.833Z,36.72
2022-11-15T02:23:19.378Z,38.83
2022-11-15T02:25:35.910Z,38.92
2022-11-15T02:27:49.988Z,39.05
2022-11-15T02:30:26.994Z,35.75
2022-11-15T02:32:39.498Z,39.30
2022-11-15T02:34:57.885Z,40.72
2022-11-15T02:37:30.567Z,38.13
2022-11-15T02:39:39.702Z,40.28
2022-11-15T02:41:48.507Z,38.22
2022-11-15T02:44:00.280Z,40.67
2022-11-15T02:46:18.805Z,39.42
2022-11-15T02:48:22.481Z,37.63
2022-11-15T02:50:27.388Z,38.70
2022-11-15T02:52:29.068Z,38.47
2022-11-15T02:54:32.881Z,38.25
2022-11-15T02:56:34.867Z,35.38
2022-11-15T02:58:50.769Z,35.83
2022-11-15T03:01:04.461Z,35.78
2022-11-15T03:03:29.228Z,40.75
2022-11-15T03:05:52.254Z,39.13
2022-11-15T03:08:02.442Z,39.10
2022-11-15T03:10:10.783Z,40.53
2022-11-15T03:12:36.676Z,40.45
2022-11-15T03:15:04.679Z,39.78
2022-11-15T03:17:25.543Z,41.40
2022-11-15T03:19:35.268Z,40.08
2022-11-15T03:21:38.634Z,39.38
2022-11-15T03:23:41.214Z,43.85
2022-11-15T03:25:47.100Z,42.60
2022-11-15T03:27:53.283Z,42.45
2022-11-15T03:29:59.353Z,44.83
2022-11-15T03:32:05.225Z,45.67
2022-11-15T03:34:09.446Z,46.78
2022-11-15T03:36:11.607Z,46.92
2022-11-15T03:38:21.302Z,46.97
2022-11-15T03:40:29.043Z,48.60
2022-11-15T03:43:01.579Z,44.78
2022-11-15T03:45:11.768Z,47.13
2022-11-15T03:47:34.282Z,45.67
2022-11-15T03:49:37.768Z,45.35
2022-11-15T03:51:39.869Z,43.30
2022-11-15T03:53:42.320Z,45.05
2022-11-15T03:55:44.034Z,44.50
2022-11-15T03:57:46.219Z,44.80
2022-11-15T03:59:47.903Z,43.38
2022-11-15T04:01:49.577Z,42.75
2022-11-15T04:03:51.349Z,45.15
2022-11-15T04:05:52.994Z,45.38
2022-11-15T04:07:54.584Z,44.33
2022-11-15T04:10:06.521Z,45.88
2022-11-15T04:12:08.165Z,44.38
2022-11-15T04:14:09.860Z,46.05
2022-11-15T04:16:11.669Z,43.13
2022-11-15T04:18:13.411Z,44.15
2022-11-15T04:20:38.192Z,42.42
2022-11-15T04:22:58.408Z,42.35
2022-11-15T04:25:00.042Z,41.08
2022-11-15T04:27:02.285Z,45.15
2022-11-15T04:29:22.282Z,43.25
2022-11-15T04:31:24.151Z,42.40
2022-11-15T04:33:26.013Z,41.60
2022-11-15T04:35:28.069Z,41.28
2022-11-15T04:37:29.739Z,41.80
2022-11-15T04:39:31.478Z,42.50
2022-11-15T04:41:33.091Z,43.90
2022-11-15T04:43:34.990Z,44.20
2022-11-15T04:45:36.825Z,42.53
2022-11-15T04:47:38.547Z,46.00
2022-11-15T04:49:40.212Z,47.00
2022-11-15T04:51:41.885Z,46.35
2022-11-15T04:53:43.790Z,47.92
2022-11-15T04:55:47.089Z,48.25
2022-11-15T04:57:48.805Z,50.83
2022-11-15T04:59:50.509Z,49.88
2022-11-15T05:01:52.218Z,49.67
2022-11-15T05:04:29.421Z,48.58
2022-11-15T05:06:31.719Z,47.25
2022-11-15T05:08:33.575Z,49.03
2022-11-15T05:10:35.224Z,49.08
2022-11-15T05:12:37.246Z,50.92
2022-11-15T05:14:38.853Z,52.85
2022-11-15T05:16:40.722Z,50.92
2022-11-15T05:18:42.526Z,54.85
2022-11-15T05:20:44.194Z,55.47
2022-11-15T05:22:45.855Z,54.25
2022-11-15T05:24:47.486Z,51.40
2022-11-15T05:26:49.155Z,45.95
2022-11-15T05:28:57.962Z,47.80
2022-11-15T05:31:03.654Z,52.25
2022-11-15T05:33:05.550Z,42.20
2022-11-15T05:35:08.405Z,42.83
2022-11-15T05:37:10.106Z,43.25
2022-11-15T05:39:11.819Z,41.83
2022-11-15T05:41:14.085Z,39.60
2022-11-15T05:43:15.748Z,39.00
2022-11-15T05:45:21.285Z,39.80
2022-11-15T05:47:27.808Z,39.13
2022-11-15T05:49:33.482Z,39.25
2022-11-15T05:51:35.337Z,39.50
2022-11-15T05:53:37.747Z,44.83
2022-11-15T05:55:40.380Z,42.22
2022-11-15T05:57:42.243Z,45.05
2022-11-15T05:59:44.535Z,47.53
2022-11-15T06:01:46.225Z,47.45
2022-11-15T06:03:48.020Z,47.80
2022-11-15T06:05:49.601Z,50.25
2022-11-15T06:07:51.316Z,53.20
2022-11-15T06:09:52.991Z,51.53
2022-11-15T06:11:54.646Z,46.13
2022-11-15T06:13:57.438Z,53.25
2022-11-15T06:15:59.540Z,48.72
2022-11-15T06:18:01.371Z,51.35
2022-11-15T06:20:03.186Z,52.78
2022-11-15T06:22:04.904Z,53.28
2022-11-15T06:24:06.998Z,53.40
2022-11-15T06:26:08.633Z,57.63
2022-11-15T06:28:10.259Z,57.28
2022-11-15T06:30:11.916Z,58.85
2022-11-15T06:32:13.542Z,55.50
2022-11-15T06:34:15.396Z,55.83
2022-11-15T06:36:18.259Z,56.55
2022-11-15T06:38:20.152Z,59.33
2022-11-15T06:40:21.874Z,59.35
2022-11-15T06:42:23.461Z,64.78
2022-11-15T06:44:25.113Z,62.55
2022-11-15T06:46:26.868Z,62.45
2022-11-15T06:48:29.351Z,65.72
2022-11-15T06:50:31.045Z,62.40
2022-11-15T06:52:33.648Z,61.88
2022-11-15T06:54:35.240Z,59.42
2022-11-15T06:56:36.838Z,58.22
2022-11-15T06:58:38.695Z,62.22
2022-11-15T07:00:40.610Z,57.63
2022-11-15T07:02:42.235Z,60.70
2022-11-15T07:04:43.923Z,64.55
2022-11-15T07:06:48.821Z,61.10
2022-11-15T07:08:50.673Z,60.28
2022-11-15T07:10:53.039Z,62.30
2022-11-15T07:12:55.347Z,60.17
2022-11-15T07:14:57.126Z,59.53
2022-11-15T07:16:58.825Z,59.88
2022-11-15T07:19:00.465Z,55.75
2022-11-15T07:21:07.090Z,49.28
2022-11-15T07:23:08.724Z,49.95
2022-11-15T07:25:10.704Z,52.53
2022-11-15T07:27:12.425Z,51.60
2022-11-15T07:29:14.404Z,50.65
2022-11-15T07:31:16.183Z,52.90
2022-11-15T07:33:17.762Z,53.88
2022-11-15T07:35:19.389Z,51.00
2022-11-15T07:37:21.075Z,49.65
2022-11-15T07:39:22.788Z,49.00
2022-11-15T07:41:24.500Z,51.03
2022-11-15T07:43:28.985Z,49.83
2022-11-15T07:45:30.979Z,51.45
2022-11-15T07:47:32.616Z,49.08
2022-11-15T07:49:34.314Z,52.60
2022-11-15T07:51:35.928Z,49.95
2022-11-15T07:53:37.576Z,48.97
2022-11-15T07:55:41.683Z,50.35
2022-11-15T07:57:43.304Z,53.85
2022-11-15T07:59:44.903Z,55.25
2022-11-15T08:01:46.570Z,54.83
2022-11-15T08:03:48.368Z,55.20
2022-11-15T08:05:53.327Z,55.47
2022-11-15T08:07:57.036Z,53.05
2022-11-15T08:09:59.513Z,61.55
2022-11-15T08:12:01.446Z,60.25
2022-11-15T08:14:03.095Z,62.90
2022-11-15T08:16:06.675Z,64.28
2022-11-15T08:18:12.764Z,64.75
2022-11-15T08:20:14.713Z,61.67
2022-11-15T08:22:16.327Z,65.80
2022-11-15T08:24:17.921Z,65.88
2022-11-15T08:26:19.704Z,67.75
2022-11-15T08:28:22.038Z,64.57
2022-11-15T08:30:24.983Z,64.35
2022-11-15T08:32:26.619Z,68.33
2022-11-15T08:34:28.260Z,65.55
2022-11-15T08:36:34.783Z,67.25
2022-11-15T08:38:43.728Z,68.00
2022-11-15T08:40:45.337Z,65.03
2022-11-15T08:42:48.019Z,65.55
2022-11-15T08:44:49.628Z,66.88
2022-11-15T08:46:51.487Z,63.03
2022-11-15T08:48:53.073Z,61.22
2022-11-15T08:50:56.318Z,61.42
2022-11-15T08:52:58.017Z,59.08
2022-11-15T08:54:59.683Z,62.10
2022-11-15T08:57:01.306Z,58.78
2022-11-15T08:59:02.900Z,57.78
2022-11-15T09:01:05.554Z,63.15
2022-11-15T09:03:08.332Z,62.20
2022-11-15T09:05:09.945Z,62.10
2022-11-15T09:07:12.507Z,65.15
2022-11-15T09:09:14.280Z,62.97
2022-11-15T09:11:17.560Z,61.25
2022-11-15T09:13:19.222Z,63.15
2022-11-15T09:15:20.894Z,63.30
2022-11-15T09:17:25.059Z,64.15
2022-11-15T09:19:27.195Z,67.38
2022-11-15T09:21:30.607Z,70.38
2022-11-15T09:23:32.224Z,66.38
2022-11-15T09:25:34.140Z,65.57
2022-11-15T09:29:55.528Z,71.38
2022-11-15T09:31:57.094Z,65.82
2022-11-15T09:33:58.988Z,67.88
2022-11-15T09:36:09.051Z,63.33
2022-11-15T09:38:10.666Z,65.90
2022-11-15T09:40:18.554Z,63.17
2022-11-15T09:42:36.708Z,61.78
2022-11-15T09:44:51.335Z,62.85
2022-11-15T09:47:01.946Z,63.25
2022-11-15T09:49:04.426Z,60.92
2022-11-15T09:51:10.320Z,58.28
2022-11-15T09:54:13.607Z,57.08
2022-11-15T09:56:17.230Z,54.05
2022-11-15T09:58:37.131Z,55.05
2022-11-15T10:00:49.727Z,56.35
2022-11-15T10:03:13.006Z,54.45
2022-11-15T10:05:19.731Z,58.58
2022-11-15T10:07:34.321Z,57.08
2022-11-15T10:10:04.341Z,55.50
2022-11-15T10:12:07.347Z,55.63
2022-11-15T10:14:24.777Z,58.73
2022-11-15T10:16:53.068Z,58.63
2022-11-15T10:19:15.796Z,57.97
2022-11-15T10:21:21.462Z,57.63
2022-11-15T10:23:24.056Z,58.72
2022-11-15T10:25:28.242Z,54.88
2022-11-15T10:27:30.579Z,57.83
2022-11-15T10:29:32.178Z,56.97
2022-11-15T10:31:33.797Z,60.10
2022-11-15T10:33:40.051Z,54.40
2022-11-15T10:35:42.586Z,56.72
2022-11-15T10:37:44.197Z,56.40
2022-11-15T10:42:19.820Z,55.92
2022-11-15T10:44:23.073Z,53.17
2022-11-15T10:46:45.479Z,53.72
2022-11-15T10:48:47.402Z,51.22
2022-11-15T10:50:50.095Z,51.13
2022-11-15T10:52:51.776Z,51.42
2022-11-15T10:55:05.790Z,51.50
2022-11-15T10:57:16.455Z,50.03
2022-11-15T10:59:38.759Z,47.35
2022-11-15T11:01:47.441Z,48.95
2022-11-15T11:04:08.640Z,46.92
2022-11-15T11:06:18.228Z,46.47
2022-11-15T11:08:24.717Z,45.35
2022-11-15T11:10:50.457Z,46.42
2022-11-15T11:12:48.874Z,46.97
2022-11-15T11:14:50.471Z,48.15
2022-11-15T11:16:56.944Z,47.35
2022-11-15T11:19:24.784Z,47.58
2022-11-15T11:21:48.068Z,45.63
2022-11-15T11:23:53.949Z,45.83
2022-11-15T11:26:26.768Z,45.03
2022-11-15T11:28:41.673Z,47.10
2022-11-15T11:31:11.277Z,46.38
2022-11-15T11:33:23.047Z,49.22
2022-11-15T11:35:49.088Z,51.53
2022-11-15T11:38:11.083Z,50.70
2022-11-15T11:40:40.653Z,54.33
2022-11-15T11:42:49.209Z,52.72
2022-11-15T11:45:24.744Z,52.97
2022-11-15T11:47:34.724Z,53.83
2022-11-15T11:50:02.012Z,53.22
2022-11-15T11:52:09.704Z,55.90
2022-11-15T11:54:20.565Z,56.85
2022-11-15T11:56:36.511Z,58.63
2022-11-15T11:58:41.505Z,57.53
2022-11-15T12:00:53.166Z,57.67
2022-11-15T12:03:15.720Z,56.75
2022-11-15T12:05:43.329Z,56.78
2022-11-15T12:07:46.108Z,58.28
2022-11-15T12:10:03.215Z,57.45
2022-11-15T12:12:13.870Z,54.03
2022-11-15T12:14:53.224Z,52.28
2022-11-15T12:16:54.858Z,57.83
2022-11-15T12:19:01.165Z,54.67
2022-11-15T12:21:28.845Z,55.97
2022-11-15T12:23:34.165Z,53.90
2022-11-15T12:25:36.373Z,55.70
2022-11-15T12:27:51.987Z,54.78
2022-11-15T12:30:17.787Z,55.30
2022-11-15T12:32:32.775Z,53.40
2022-11-15T12:34:41.957Z,52.92
2022-11-15T12:36:46.546Z,49.47
2022-11-15T12:38:56.890Z,50.92
2022-11-15T12:41:18.960Z,51.33
2022-11-15T12:43:20.602Z,49.17
2022-11-15T12:45:37.789Z,52.88
2022-11-15T12:47:39.399Z,51.65
2022-11-15T12:49:40.946Z,50.38
2022-11-15T12:51:48.530Z,51.10
2022-11-15T12:53:50.351Z,48.80
2022-11-15T12:56:04.162Z,49.97
2022-11-15T12:58:29.302Z,49.33
2022-11-15T13:00:40.243Z,49.80
2022-11-15T13:02:46.481Z,50.95
2022-11-15T13:04:48.893Z,51.22
2022-11-15T13:07:08.560Z,51.97
2022-11-15T13:09:28.729Z,53.25
2022-11-15T13:12:09.175Z,53.03
2022-11-15T13:14:36.051Z,50.50
2022-11-15T13:16:38.197Z,49.08
2022-11-15T13:18:41.168Z,48.80
2022-11-15T13:20:45.942Z,51.23
2022-11-15T13:23:00.585Z,51.53
2022-11-15T13:25:02.766Z,52.35
2022-11-15T13:27:13.991Z,52.25
2022-11-15T13:29:20.383Z,51.58
2022-11-15T13:31:44.473Z,49.28
2022-11-15T13:33:46.343Z,51.47
2022-11-15T13:35:56.328Z,51.00
2022-11-15T13:38:04.955Z,51.15
2022-11-15T13:40:31.124Z,51.47
2022-11-15T13:42:32.916Z,52.83
2022-11-15T13:44:34.823Z,49.38
2022-11-15T13:46:36.599Z,50.45
2022-11-15T13:48:38.415Z,50.35
2022-11-15T13:50:40.402Z,48.67
2022-11-15T13:52:44.277Z,49.72
2022-11-15T13:57:02.237Z,47.20
2022-11-15T13:59:11.530Z,48.40
2022-11-15T14:01:20.777Z,48.30
2022-11-15T14:03:27.108Z,50.85
2022-11-15T14:05:28.858Z,49.95
2022-11-15T14:07:30.960Z,48.25
2022-11-15T14:09:34.477Z,50.88
2022-11-15T14:11:36.304Z,52.08
2022-11-15T14:13:38.002Z,49.80
2022-11-15T14:15:40.223Z,53.70
2022-11-15T14:17:47.200Z,51.65
2022-11-15T14:19:52.271Z,53.35
2022-11-15T14:22:16.075Z,53.05
2022-11-15T14:24:22.288Z,53.22
2022-11-15T14:26:28.669Z,51.53
2022-11-15T14:28:37.554Z,49.72
2022-11-15T14:30:44.159Z,55.40
2022-11-15T14:32:50.465Z,56.95
2022-11-15T14:35:03.729Z,58.45
2022-11-15T14:37:05.517Z,58.30
2022-11-15T14:39:07.220Z,53.78
2022-11-15T14:41:19.488Z,56.75
2022-11-15T14:43:21.137Z,58.20
2022-11-15T14:45:23.246Z,57.15
2022-11-15T14:47:24.856Z,56.60
2022-11-15T14:49:26.559Z,57.88
2022-11-15T14:51:28.182Z,57.60
2022-11-15T14:53:29.910Z,58.97
2022-11-15T14:55:37.260Z,60.22
2022-11-15T14:57:38.957Z,58.85
2022-11-15T14:59:40.594Z,59.10
2022-11-15T15:01:42.408Z,62.22
2022-11-15T15:03:45.188Z,61.20
2022-11-15T15:05:47.035Z,63.85
2022-11-15T15:07:49.449Z,69.68
2022-11-15T15:09:51.213Z,71.95
2022-11-15T15:11:55.693Z,81.10
2022-11-15T15:13:59.248Z,81.28
2022-11-15T15:16:00.878Z,78.43
2022-11-15T15:18:03.606Z,70.53
2022-11-15T15:20:05.659Z,67.47
2022-11-15T15:22:09.681Z,65.10
2022-11-15T15:24:17.430Z,62.25
2022-11-15T15:26:19.136Z,60.05
2022-11-15T15:28:20.831Z,59.10
2022-11-15T15:30:28.373Z,61.47
2022-11-15T15:32:30.133Z,58.20
2022-11-15T15:34:31.921Z,55.42
2022-11-15T15:36:33.534Z,56.38
2022-11-15T15:38:35.657Z,55.85
2022-11-15T15:40:37.458Z,55.42
2022-11-15T15:42:39.060Z,53.65
2022-11-15T15:44:40.729Z,52.45
2022-11-15T15:46:42.334Z,55.53
2022-11-15T15:48:44.884Z,55.92
2022-11-15T15:50:46.576Z,58.55
2022-11-15T15:52:48.454Z,58.13
2022-11-15T15:54:50.165Z,57.20
2022-11-15T15:56:56.085Z,55.92
2022-11-15T15:58:58.002Z,56.22
2022-11-15T16:00:59.779Z,58.47
2022-11-15T16:03:01.806Z,57.63
2022-11-15T16:05:03.868Z,57.78
2022-11-15T16:07:05.558Z,57.72
2022-11-15T16:09:15.023Z,55.97
2022-11-15T16:11:18.027Z,57.40
2022-11-15T16:13:19.743Z,58.75
2022-11-15T16:15:22.682Z,58.60
2022-11-15T16:17:32.851Z,57.33
2022-11-15T16:19:35.734Z,60.38
2022-11-15T16:21:37.536Z,56.40
2022-11-15T16:23:40.193Z,61.13
2022-11-15T16:25:43.201Z,59.80
2022-11-15T16:27:46.071Z,65.60
2022-11-15T16:29:48.344Z,60.42
2022-11-15T16:31:49.992Z,61.00
2022-11-15T16:33:51.639Z,61.50
2022-11-15T16:35:53.280Z,63.15
2022-11-15T16:37:55.182Z,59.72
2022-11-15T16:40:00.818Z,60.42
2022-11-15T16:42:03.552Z,75.47
2022-11-15T16:44:05.161Z,85.82
2022-11-15T16:46:20.355Z,95.15
2022-11-15T16:48:28.439Z,91.82
2022-11-15T16:50:32.891Z,90.55
2022-11-15T16:52:34.558Z,91.85
2022-11-15T16:54:38.540Z,84.18
2022-11-15T16:56:40.636Z,77.03
2022-11-15T16:58:53.103Z,74.40
2022-11-15T17:00:58.872Z,75.28
2022-11-15T17:03:00.523Z,71.38
2022-11-15T17:05:07.058Z,72.40
2022-11-15T17:07:11.674Z,68.57
2022-11-15T17:09:24.493Z,64.97
2022-11-15T17:11:26.221Z,65.35
2022-11-15T17:13:27.889Z,57.65
2022-11-15T17:15:29.548Z,56.72
2022-11-15T17:17:31.831Z,55.25
2022-11-15T17:19:33.612Z,57.03
2022-11-15T17:21:35.165Z,54.97
2022-11-15T17:23:36.906Z,57.08
2022-11-15T17:25:38.578Z,59.35
2022-11-15T17:27:40.707Z,59.08
2022-11-15T17:29:42.727Z,59.75
2022-11-15T17:31:44.702Z,57.40
2022-11-15T17:33:46.289Z,56.17
2022-11-15T17:35:58.398Z,55.47
2022-11-15T17:38:00.019Z,60.60
2022-11-15T17:40:01.711Z,58.55
2022-11-15T17:42:03.366Z,59.17
2022-11-15T17:44:05.193Z,60.97
2022-11-15T17:46:13.255Z,62.45
2022-11-15T17:48:14.973Z,61.40
2022-11-15T17:50:18.051Z,69.32
2022-11-15T17:52:19.948Z,83.20
2022-11-15T17:54:21.664Z,82.18
2022-11-15T17:56:24.820Z,88.35
2022-11-15T17:58:26.576Z,95.97
2022-11-15T18:00:28.239Z,90.53
2022-11-15T18:02:30.556Z,92.57
2022-11-15T18:04:32.299Z,96.45
2022-11-15T18:06:35.149Z,108.47
2022-11-15T18:08:37.811Z,107.60
2022-11-15T18:10:39.626Z,102.82
2022-11-15T18:12:41.243Z,103.07
2022-11-15T18:14:43.073Z,103.07
2022-11-15T18:16:44.810Z,99.68
2022-11-15T18:18:46.609Z,99.38
2022-11-15T18:20:48.201Z,96.28
2022-11-15T18:22:53.218Z,111.72
2022-11-15T18:24:54.975Z,131.52
2022-11-15T18:26:57.958Z,135.63
2022-11-15T18:29:04.577Z,132.23
2022-11-15T18:31:16.844Z,127.05
2022-11-15T18:33:19.624Z,143.98
2022-11-15T18:35:21.273Z,157.52
2022-11-15T18:37:22.988Z,128.98
2022-11-15T18:39:24.656Z,140.48
2022-11-15T18:41:29.871Z,145.88
2022-11-15T18:43:31.828Z,163.50
2022-11-15T18:45:36.556Z,144.35
2022-11-15T18:47:38.181Z,150.32
2022-11-15T18:49:39.897Z,139.10
2022-11-15T18:51:44.401Z,137.48
2022-11-15T18:53:46.405Z,143.90
2022-11-15T18:55:48.004Z,136.75
2022-11-15T18:57:49.579Z,135.60
2022-11-15T18:59:51.276Z,137.75
2022-11-15T19:01:53.049Z,147.88
2022-11-15T19:03:56.909Z,131.40
2022-11-15T19:08:42.109Z,137.35
2022-11-15T19:10:43.751Z,139.13
2022-11-15T19:12:47.216Z,139.13
2022-11-15T19:14:48.931Z,139.57
2022-11-15T19:16:52.450Z,140.77
2022-11-15T19:18:58.873Z,126.40
2022-11-15T19:21:04.636Z,132.07
2022-11-15T19:23:06.492Z,134.00
2022-11-15T19:25:08.821Z,137.82
2022-11-15T19:27:10.509Z,139.20
2022-11-15T19:29:12.297Z,137.80
2022-11-15T19:31:15.439Z,136.27
2022-11-15T19:33:17.254Z,140.85
2022-11-15T19:35:18.954Z,139.70
2022-11-15T19:37:20.563Z,135.45
2022-11-15T19:39:22.382Z,140.52
2022-11-15T19:41:25.254Z,133.45
2022-11-15T19:43:27.325Z,129.43
2022-11-15T19:45:29.041Z,119.55
2022-11-15T19:47:30.730Z,120.03
2022-11-15T19:49:32.421Z,117.32
2022-11-15T19:51:34.121Z,112.63
2022-11-15T19:53:36.737Z,112.03
2022-11-15T19:55:38.644Z,112.50
2022-11-15T19:57:40.260Z,106.88
2022-11-15T19:59:41.888Z,109.88
2022-11-15T20:01:43.744Z,109.35
2022-11-15T20:03:46.040Z,96.80
2022-11-15T20:05:47.751Z,106.28
2022-11-15T20:07:49.472Z,99.80
2022-11-15T20:09:51.066Z,99.35
2022-11-15T20:11:52.879Z,101.60
2022-11-15T20:13:59.019Z,104.32
2022-11-15T20:16:00.799Z,110.47
2022-11-15T20:18:02.513Z,101.60
2022-11-15T20:20:04.703Z,96.50
2022-11-15T20:22:06.252Z,100.53
2022-11-15T20:24:08.380Z,93.18
2022-11-15T20:26:10.756Z,94.78
2022-11-15T20:28:26.343Z,94.65
2022-11-15T20:30:28.000Z,96.13
2022-11-15T20:32:31.172Z,92.03
2022-11-15T20:34:32.832Z,89.97
2022-11-15T20:36:34.499Z,88.68
2022-11-15T20:38:36.399Z,88.85
2022-11-15T20:40:39.368Z,91.30
2022-11-15T20:42:41.187Z,88.03
2022-11-15T20:44:42.748Z,89.50
2022-11-15T20:46:44.491Z,91.18
2022-11-15T20:48:46.140Z,90.40
2022-11-15T20:50:48.019Z,88.03
2022-11-15T20:52:49.723Z,87.65
2022-11-15T20:54:51.402Z,85.88
2022-11-15T20:56:53.070Z,88.85
2022-11-15T20:58:56.504Z,87.25
2022-11-15T21:00:58.367Z,86.00
2022-11-15T21:03:00.039Z,86.85
2022-11-15T21:05:02.305Z,87.10
2022-11-15T21:07:04.502Z,90.78
2022-11-15T21:09:24.845Z,90.38
2022-11-15T21:11:44.876Z,99.32
2022-11-15T21:13:46.521Z,93.25
2022-11-15T21:15:48.557Z,95.30
2022-11-15T21:17:50.232Z,96.47
2022-11-15T21:19:51.951Z,91.10
2022-11-15T21:21:53.696Z,100.97
2022-11-15T21:23:55.249Z,102.47
2022-11-15T21:25:56.996Z,94.20
2022-11-15T21:27:58.650Z,86.53
2022-11-15T21:30:00.339Z,91.18
2022-11-15T21:32:06.837Z,106.68
2022-11-15T21:34:08.811Z,107.57
2022-11-15T21:36:10.426Z,97.93
2022-11-15T21:38:12.113Z,90.65
2022-11-15T21:40:13.791Z,90.20
2022-11-15T21:42:15.413Z,82.88
2022-11-15T21:44:17.197Z,87.97
2022-11-15T21:46:18.827Z,87.88
2022-11-15T21:48:20.557Z,84.55
2022-11-15T21:50:22.530Z,83.03
2022-11-15T21:52:28.483Z,84.28
2022-11-15T21:54:30.112Z,82.05
2022-11-15T21:56:32.441Z,84.60
2022-11-15T21:58:34.810Z,86.13
2022-11-15T22:00:55.453Z,83.72
2022-11-15T22:02:57.138Z,85.70
2022-11-15T22:04:58.961Z,82.30
2022-11-15T22:07:00.589Z,85.47
2022-11-15T22:09:03.127Z,82.03
2022-11-15T22:11:04.855Z,80.68
2022-11-15T22:13:06.539Z,80.40
2022-11-15T22:15:08.420Z,81.57
2022-11-15T22:17:13.205Z,81.07
2022-11-15T22:19:15.105Z,78.03
2022-11-15T22:21:17.940Z,80.05
2022-11-15T22:23:19.703Z,79.68
2022-11-15T22:25:21.396Z,75.72
2022-11-15T22:27:23.105Z,76.30
2022-11-15T22:29:24.809Z,82.00
2022-11-15T22:31:26.624Z,76.45
2022-11-15T22:33:30.092Z,82.15
2022-11-15T22:35:31.873Z,80.28
2022-11-15T22:37:33.648Z,81.15
2022-11-15T22:39:35.335Z,77.97
2022-11-15T22:41:37.102Z,82.95
2022-11-15T22:43:38.742Z,79.05
2022-11-15T22:45:50.475Z,82.90
2022-11-15T22:47:52.257Z,78.93
2022-11-15T22:49:53.954Z,80.05
2022-11-15T22:51:55.634Z,83.13
2022-11-15T22:53:57.576Z,83.75
2022-11-15T22:56:01.236Z,83.75
2022-11-15T22:58:02.930Z,86.40
2022-11-15T23:00:11.242Z,84.82
2022-11-15T23:02:12.916Z,86.28
2022-11-15T23:04:14.701Z,91.15
2022-11-15T23:06:16.854Z,88.65
2022-11-15T23:08:19.468Z,86.95
2022-11-15T23:10:39.677Z,85.18
2022-11-15T23:13:00.113Z,89.18
2022-11-15T23:15:01.930Z,90.40
2022-11-15T23:17:03.873Z,92.35
2022-11-15T23:19:08.468Z,88.82
2022-11-15T23:21:14.110Z,85.25
2022-11-15T23:23:15.749Z,83.05
2022-11-15T23:25:17.502Z,83.53
2022-11-15T23:27:20.819Z,82.65
2022-11-15T23:29:24.941Z,84.85
2022-11-15T23:31:45.438Z,83.30
2022-11-15T23:33:59.060Z,81.65
2022-11-15T23:36:00.849Z,84.75
2022-11-15T23:38:02.557Z,85.40
2022-11-15T23:40:05.354Z,83.03
2022-11-15T23:42:09.296Z,82.97
2022-11-15T23:44:11.481Z,80.53
2022-11-15T23:46:13.305Z,85.95
2022-11-15T23:48:14.982Z,83.03
2022-11-15T23:50:17.183Z,80.15
2022-11-15T23:52:19.003Z,89.30
2022-11-15T23:54:20.831Z,86.65
2022-11-15T23:56:23.008Z,84.25
2022-11-15T23:58:24.703Z,91.80
